首页
METAR-TAF:

METAR-TAF

机场 :

龐塞, 波多黎哥, 美国

纬度: 18-01N, 经度: 066-34W, 海拔: 8米

当前天气观测

该预报发布于25分钟前的08:15 UTC
风速12节,风向东转东南,有时为17节阵风
温度 26°C
湿度 84%
气压 1013 hPa
能見度: 11.3公里
散云层高于1100英尺
多云层高于1800英尺
阴天层高于2900英尺

METAR: TJPS 220815Z AUTO 12012G17KT 7SM SCT011 BKN018 OVC029 26/23 A2992 RMK AO2 PWINO

时间: 04:40 (08:40 UTC)

预报

该预报发布于3小时和20分钟前的05:20 UTC
预报有效从22日的 06点(UTC)到 23日的 06点(UTC)
风速4节,风向多变
能見度: 10公里
散云层高于2500英尺
多云层高于7000英尺
附近有阵雨
从 22日的 1400点(UTC)
风速10节,风向
能見度: 10公里
少量云层高于3000英尺
从 22日的 1600点(UTC)
风速13节,风向东南
能見度: 10公里
散云层高于3000英尺, 积雨云.
附近有雷暴
几率 30%
从 22日的 16点(UTC)到 22日的 20点(UTC)
能見度: 6.4公里
多云层高于1800英尺, 积雨云.
多云层高于3000英尺
阴天层高于5000英尺
雷暴, 雨
从 22日的 2300点(UTC)
风速6节,风向东转东北
能見度: 10公里
少量云层高于3000英尺

TAF: TJPS 220520Z 2206/2306 VRB04KT P6SM VCSH SCT025 BKN070 FM221400 10010KT P6SM FEW030 FM221600 13013KT P6SM VCTS SCT030CB PROB30 2216/2220 4SM TSRA BKN018CB BKN030 OVC050 FM222300 06006KT P6SM FEW030

超过4000个机场的气象观测和天气预报(METAR&TAF报告)。

可查询的气象台以黄色和红色小点在地图上表示。

将鼠标移到小点上方,可查看气象台名称。

然后点击查看天气观测和预报。

如需切换地图:点击带黑十字的绿色按钮放大地图;点击带横线的绿色按钮缩小地图;或者点击绿色箭头查看邻近地区的地图。


METAR-TAF: